createdAt,value
2022-08-10T00:01:51.288Z,14.80
2022-08-10T00:04:21.510Z,14.70
2022-08-10T00:06:49.315Z,14.70
2022-08-10T00:09:15.957Z,14.60
2022-08-10T00:11:42.714Z,14.50
2022-08-10T00:14:09.407Z,14.50
2022-08-10T00:16:36.074Z,14.50
2022-08-10T00:19:02.764Z,14.60
2022-08-10T00:21:29.486Z,14.60
2022-08-10T00:23:56.226Z,14.50
2022-08-10T00:26:22.931Z,14.60
2022-08-10T00:28:49.673Z,14.60
2022-08-10T00:31:16.382Z,14.50
2022-08-10T00:33:43.050Z,14.50
2022-08-10T00:36:09.898Z,14.40
2022-08-10T00:38:37.634Z,14.40
2022-08-10T00:41:04.534Z,14.30
2022-08-10T00:43:31.895Z,14.30
2022-08-10T00:46:00.454Z,14.30
2022-08-10T00:48:28.539Z,14.30
2022-08-10T00:50:55.332Z,14.30
2022-08-10T00:53:22.007Z,14.30
2022-08-10T00:57:12.372Z,14.30
2022-08-10T00:58:37.010Z,14.30
2022-08-10T01:01:06.370Z,14.20
2022-08-10T01:04:36.251Z,14.10
2022-08-10T01:06:43.100Z,14.20
2022-08-10T01:09:19.078Z,14.10
2022-08-10T01:12:40.049Z,14.10
2022-08-10T01:14:52.419Z,14.10
2022-08-10T01:17:50.493Z,13.90
2022-08-10T01:20:30.054Z,13.90
2022-08-10T01:22:57.791Z,13.80
2022-08-10T01:26:12.562Z,13.90
2022-08-10T01:28:33.185Z,13.80
2022-08-10T01:31:01.242Z,13.80
2022-08-10T01:33:59.050Z,13.80
2022-08-10T01:36:34.719Z,13.70
2022-08-10T01:39:03.653Z,13.60
2022-08-10T01:41:45.754Z,13.50
2022-08-10T01:44:15.285Z,13.50
2022-08-10T01:46:45.139Z,13.40
2022-08-10T01:49:12.577Z,13.50
2022-08-10T01:51:42.356Z,13.50
2022-08-10T01:54:13.033Z,13.50
2022-08-10T01:56:42.220Z,13.50
2022-08-10T01:59:14.072Z,13.40
2022-08-10T02:01:47.907Z,13.40
2022-08-10T02:04:16.176Z,13.30
2022-08-10T02:06:47.290Z,13.30
2022-08-10T02:09:18.496Z,13.20
2022-08-10T02:12:06.407Z,13.20
2022-08-10T02:14:34.773Z,13.20
2022-08-10T02:17:06.513Z,13.10
2022-08-10T02:19:34.710Z,13.10
2022-08-10T02:22:36.771Z,13.10
2022-08-10T02:24:49.585Z,13.10
2022-08-10T02:27:18.097Z,13.10
2022-08-10T02:29:48.934Z,13.00
2022-08-10T02:32:36.154Z,13.10
2022-08-10T02:35:05.841Z,13.10
2022-08-10T02:37:34.208Z,13.00
2022-08-10T02:40:00.946Z,13.00
2022-08-10T02:45:20.365Z,13.00
2022-08-10T02:45:30.839Z,13.00
2022-08-10T02:48:10.196Z,13.10
2022-08-10T02:50:38.553Z,13.00
2022-08-10T02:53:55.229Z,13.10
2022-08-10T02:56:18.570Z,13.20
2022-08-10T02:58:47.711Z,13.40
2022-08-10T03:01:17.840Z,13.40
2022-08-10T03:03:52.773Z,13.50
2022-08-10T03:06:22.378Z,13.50
2022-08-10T03:08:49.311Z,13.60
2022-08-10T03:12:35.507Z,13.70
2022-08-10T03:14:12.137Z,13.70
2022-08-10T03:16:39.334Z,13.40
2022-08-10T03:19:07.737Z,13.40
2022-08-10T03:21:55.182Z,13.30
2022-08-10T03:24:30.569Z,13.30
2022-08-10T03:27:00.406Z,13.30
2022-08-10T03:29:28.151Z,13.30
2022-08-10T03:31:55.507Z,13.20
2022-08-10T03:34:32.903Z,13.10
2022-08-10T03:37:00.616Z,13.00
2022-08-10T03:39:27.495Z,12.90
2022-08-10T03:41:55.905Z,12.80
2022-08-10T03:44:28.826Z,12.80
2022-08-10T03:46:55.653Z,12.80
2022-08-10T03:49:23.223Z,12.70
2022-08-10T03:51:51.418Z,12.60
2022-08-10T03:54:18.593Z,12.50
2022-08-10T03:56:45.722Z,12.50
2022-08-10T03:59:15.048Z,12.40
2022-08-10T04:02:42.273Z,12.40
2022-08-10T04:04:32.748Z,12.40
2022-08-10T04:07:00.068Z,12.30
2022-08-10T04:09:43.447Z,12.30
2022-08-10T04:12:15.325Z,12.30
2022-08-10T04:14:50.090Z,12.30
2022-08-10T04:17:56.991Z,12.30
2022-08-10T04:20:06.413Z,12.30
2022-08-10T04:22:33.715Z,12.30
2022-08-10T04:25:03.104Z,12.20
2022-08-10T04:27:29.894Z,12.20
2022-08-10T04:29:57.347Z,12.20
2022-08-10T04:32:25.310Z,12.20
2022-08-10T04:34:52.919Z,12.20
2022-08-10T04:37:21.078Z,12.30
2022-08-10T04:39:48.501Z,12.30
2022-08-10T04:42:15.491Z,12.40
2022-08-10T04:44:42.635Z,12.40
2022-08-10T04:47:09.623Z,12.50
2022-08-10T04:49:54.283Z,12.40
2022-08-10T04:52:25.307Z,12.50
2022-08-10T04:55:00.105Z,12.60
2022-08-10T04:57:27.122Z,12.70
2022-08-10T04:59:54.048Z,12.90
2022-08-10T05:02:28.667Z,12.90
2022-08-10T05:04:57.581Z,12.90
2022-08-10T05:07:24.229Z,13.10
2022-08-10T05:10:01.698Z,13.10
2022-08-10T05:12:36.551Z,13.20
2022-08-10T05:15:10.924Z,13.30
2022-08-10T05:17:38.431Z,13.40
2022-08-10T05:20:07.835Z,13.50
2022-08-10T05:22:41.993Z,13.70
2022-08-10T05:25:10.517Z,13.90
2022-08-10T05:27:37.788Z,14.00
2022-08-10T05:30:05.239Z,14.20
2022-08-10T05:32:55.366Z,14.20
2022-08-10T05:35:19.651Z,14.40
2022-08-10T05:38:08.964Z,14.40
2022-08-10T05:40:34.134Z,14.50
2022-08-10T05:43:00.859Z,14.80
2022-08-10T05:45:27.820Z,14.80
2022-08-10T05:48:54.320Z,15.00
2022-08-10T05:50:41.719Z,15.10
2022-08-10T05:54:02.656Z,15.30
2022-08-10T05:55:55.653Z,15.40
2022-08-10T05:58:22.375Z,15.60
2022-08-10T06:00:54.462Z,15.60
2022-08-10T06:03:28.647Z,15.70
2022-08-10T06:05:56.832Z,15.70
2022-08-10T06:08:26.833Z,15.90
2022-08-10T06:12:24.575Z,16.00
2022-08-10T06:14:16.073Z,16.10
2022-08-10T06:16:45.580Z,16.20
2022-08-10T06:19:14.562Z,16.30
2022-08-10T06:21:41.577Z,16.40
2022-08-10T06:24:30.272Z,16.50
2022-08-10T06:26:57.932Z,16.60
2022-08-10T06:29:25.056Z,16.60
2022-08-10T06:31:53.261Z,16.80
2022-08-10T06:34:25.949Z,17.00
2022-08-10T06:36:53.964Z,17.20
2022-08-10T06:39:37.641Z,17.30
2022-08-10T06:42:16.655Z,17.40
2022-08-10T06:44:50.895Z,17.60
2022-08-10T06:47:23.220Z,17.80
2022-08-10T06:49:51.911Z,17.90
2022-08-10T06:52:19.419Z,18.00
2022-08-10T06:54:47.021Z,18.10
2022-08-10T06:57:18.406Z,18.50
2022-08-10T06:59:46.004Z,18.90
2022-08-10T07:02:37.245Z,19.30
2022-08-10T07:05:05.600Z,19.50
2022-08-10T07:07:34.602Z,19.80
2022-08-10T07:10:01.697Z,21.50
2022-08-10T07:12:28.638Z,23.20
2022-08-10T07:14:56.494Z,24.70
2022-08-10T07:17:24.379Z,23.80
2022-08-10T07:19:52.895Z,26.90
2022-08-10T07:23:53.832Z,26.80
2022-08-10T07:25:09.072Z,27.50
2022-08-10T07:27:39.265Z,27.80
2022-08-10T07:30:24.992Z,28.30
2022-08-10T07:32:52.478Z,29.10
2022-08-10T07:35:20.920Z,28.00
2022-08-10T07:37:49.444Z,27.80
2022-08-10T07:40:18.122Z,29.10
2022-08-10T07:42:47.108Z,30.10
2022-08-10T07:45:13.972Z,28.70
2022-08-10T07:47:55.357Z,29.50
2022-08-10T07:50:22.949Z,28.80
2022-08-10T07:52:51.258Z,29.60
2022-08-10T07:55:19.536Z,29.70
2022-08-10T07:58:06.283Z,29.70
2022-08-10T08:00:33.667Z,28.60
2022-08-10T08:03:02.378Z,29.60
2022-08-10T08:05:57.619Z,28.90
2022-08-10T08:08:17.914Z,28.80
2022-08-10T08:10:45.191Z,28.30
2022-08-10T08:13:12.709Z,28.60
2022-08-10T08:16:20.612Z,28.00
2022-08-10T08:18:28.414Z,28.80
2022-08-10T08:20:55.365Z,25.90
2022-08-10T08:24:04.728Z,24.30
2022-08-10T08:26:10.353Z,25.30
2022-08-10T08:28:37.164Z,24.90
2022-08-10T08:31:04.508Z,25.10
2022-08-10T08:33:42.095Z,24.80
2022-08-10T08:36:10.748Z,25.30
2022-08-10T08:38:38.179Z,25.20
2022-08-10T08:41:20.433Z,24.70
2022-08-10T08:43:53.943Z,24.80
2022-08-10T08:46:34.709Z,24.70
2022-08-10T08:50:05.198Z,25.40
2022-08-10T08:52:19.178Z,25.10
2022-08-10T08:54:51.740Z,25.00
2022-08-10T08:57:49.443Z,25.60
2022-08-10T09:00:33.399Z,25.50
2022-08-10T09:03:18.442Z,25.90
2022-08-10T09:05:58.505Z,26.00
2022-08-10T09:08:51.156Z,25.80
2022-08-10T09:11:36.396Z,26.20
2022-08-10T09:14:06.058Z,26.40
2022-08-10T09:16:40.298Z,25.80
2022-08-10T09:19:10.344Z,25.00
2022-08-10T09:21:59.199Z,25.70
2022-08-10T09:24:35.489Z,25.10
2022-08-10T09:27:06.507Z,25.60
2022-08-10T09:29:44.843Z,25.50
2022-08-10T09:36:16.776Z,26.60
2022-08-10T09:36:22.610Z,26.60
2022-08-10T09:38:46.029Z,26.80
2022-08-10T09:41:37.349Z,27.20
2022-08-10T09:44:21.062Z,26.90
2022-08-10T09:47:16.922Z,26.80
2022-08-10T09:50:07.057Z,26.70
2022-08-10T09:52:58.650Z,26.70
2022-08-10T09:56:19.106Z,27.10
2022-08-10T09:58:27.966Z,26.30
2022-08-10T10:01:56.333Z,26.30
2022-08-10T10:04:27.328Z,26.10
2022-08-10T10:07:04.319Z,26.40
2022-08-10T10:09:58.248Z,27.20
2022-08-10T10:12:44.572Z,26.80
2022-08-10T10:15:24.439Z,27.10
2022-08-10T10:18:07.748Z,26.50
2022-08-10T10:21:05.354Z,27.00
2022-08-10T10:23:41.319Z,27.00
2022-08-10T10:26:27.050Z,26.90
2022-08-10T10:29:56.625Z,26.50
2022-08-10T10:32:45.021Z,26.30
2022-08-10T10:35:11.718Z,26.30
2022-08-10T10:38:02.953Z,26.60
2022-08-10T10:40:32.078Z,27.00
2022-08-10T10:43:20.375Z,26.70
2022-08-10T10:45:58.163Z,26.60
2022-08-10T10:48:52.695Z,26.20
2022-08-10T10:51:48.115Z,25.90
2022-08-10T10:54:28.149Z,26.20
2022-08-10T10:57:06.397Z,26.40
2022-08-10T11:00:02.272Z,26.50
2022-08-10T11:02:36.849Z,26.50
2022-08-10T11:05:28.862Z,25.90
2022-08-10T11:08:14.862Z,26.30
2022-08-10T11:12:01.198Z,26.40
2022-08-10T11:14:58.942Z,27.20
2022-08-10T11:17:46.573Z,29.50
2022-08-10T11:20:26.382Z,29.70
2022-08-10T11:22:59.050Z,31.10
2022-08-10T11:25:36.796Z,32.90
2022-08-10T11:28:19.817Z,34.00
2022-08-10T11:31:05.503Z,34.70
2022-08-10T11:34:48.296Z,32.80
2022-08-10T11:37:22.444Z,30.90
2022-08-10T11:40:13.595Z,27.80
2022-08-10T11:43:08.607Z,26.20
2022-08-10T11:45:51.530Z,25.90
2022-08-10T11:48:52.872Z,26.00
2022-08-10T11:51:45.681Z,26.20
2022-08-10T11:54:55.426Z,25.60
2022-08-10T11:57:54.294Z,25.80
2022-08-10T12:00:19.419Z,25.90
2022-08-10T12:02:55.597Z,25.50
2022-08-10T12:05:54.407Z,25.60
2022-08-10T12:10:07.420Z,25.60
2022-08-10T12:11:25.103Z,25.50
2022-08-10T12:14:28.084Z,25.90
2022-08-10T12:17:45.057Z,25.90
2022-08-10T12:20:25.603Z,25.90
2022-08-10T12:23:22.508Z,26.20
2022-08-10T12:26:17.143Z,26.10
2022-08-10T12:29:09.897Z,26.20
2022-08-10T12:31:48.397Z,25.70
2022-08-10T12:34:41.362Z,25.60
2022-08-10T12:37:35.244Z,25.70
2022-08-10T12:40:35.248Z,25.90
2022-08-10T12:44:06.543Z,25.90
2022-08-10T12:46:21.478Z,26.20
2022-08-10T12:48:52.924Z,26.40
2022-08-10T12:51:30.614Z,26.30
2022-08-10T12:54:11.911Z,26.50
2022-08-10T12:56:47.660Z,26.10
2022-08-10T12:59:17.165Z,26.00
2022-08-10T13:02:07.408Z,25.80
2022-08-10T13:04:40.255Z,25.80
2022-08-10T13:07:08.163Z,25.70
2022-08-10T13:09:56.775Z,25.40
2022-08-10T13:12:44.892Z,25.60
2022-08-10T13:15:48.036Z,25.50
2022-08-10T13:18:17.727Z,25.30
2022-08-10T13:20:51.607Z,25.40
2022-08-10T13:23:28.142Z,25.20
2022-08-10T13:25:58.417Z,25.10
2022-08-10T13:28:39.898Z,25.20
2022-08-10T13:31:16.953Z,25.20
2022-08-10T13:34:40.260Z,25.30
2022-08-10T13:36:38.654Z,25.10
2022-08-10T13:39:07.103Z,25.10
2022-08-10T13:41:45.186Z,25.20
2022-08-10T13:44:17.535Z,25.00
2022-08-10T13:46:52.305Z,25.30
2022-08-10T13:49:21.662Z,25.30
2022-08-10T13:51:56.359Z,25.10
2022-08-10T13:54:28.995Z,25.30
2022-08-10T13:56:57.764Z,25.20
2022-08-10T14:00:35.061Z,25.10
2022-08-10T14:02:22.782Z,25.00
2022-08-10T14:04:50.307Z,25.20
2022-08-10T14:07:18.115Z,25.30
2022-08-10T14:09:47.624Z,25.00
2022-08-10T14:12:16.534Z,25.10
2022-08-10T14:14:52.678Z,25.10
2022-08-10T14:17:22.171Z,25.00
2022-08-10T14:19:58.656Z,25.20
2022-08-10T14:22:34.044Z,25.20
2022-08-10T14:25:09.076Z,25.20
2022-08-10T14:28:02.262Z,25.20
2022-08-10T14:30:30.776Z,25.20
2022-08-10T14:33:00.330Z,25.00
2022-08-10T14:36:19.626Z,24.90
2022-08-10T14:38:20.775Z,24.90
2022-08-10T14:40:52.414Z,24.90
2022-08-10T14:43:28.592Z,24.80
2022-08-10T14:46:06.086Z,24.70
2022-08-10T14:48:40.159Z,24.90
2022-08-10T14:51:09.436Z,25.00
2022-08-10T14:53:38.470Z,24.80
2022-08-10T14:56:13.571Z,24.70
2022-08-10T14:58:59.296Z,24.70
2022-08-10T15:02:00.343Z,24.90
2022-08-10T15:04:28.914Z,24.90
2022-08-10T15:07:20.609Z,25.00
2022-08-10T15:10:01.992Z,24.70
2022-08-10T15:12:34.079Z,24.70
2022-08-10T15:15:03.239Z,24.70
2022-08-10T15:17:35.078Z,24.80
2022-08-10T15:20:14.297Z,24.90
2022-08-10T15:22:50.004Z,25.00
2022-08-10T15:25:25.609Z,24.90
2022-08-10T15:28:14.496Z,25.00
2022-08-10T15:30:47.314Z,25.00
2022-08-10T15:34:04.178Z,24.90
2022-08-10T15:37:36.051Z,24.90
2022-08-10T15:40:25.089Z,24.90
2022-08-10T15:43:20.186Z,24.80
2022-08-10T15:46:20.640Z,24.90
2022-08-10T15:48:53.426Z,24.80
2022-08-10T15:51:28.192Z,24.60
2022-08-10T15:54:12.155Z,24.80
2022-08-10T15:56:51.266Z,24.70
2022-08-10T15:59:33.254Z,24.60
2022-08-10T16:02:24.935Z,24.60
2022-08-10T16:05:16.684Z,24.50
2022-08-10T16:07:50.274Z,24.50
2022-08-10T16:10:29.315Z,24.40
2022-08-10T16:13:50.401Z,24.50
2022-08-10T16:16:06.128Z,24.40
2022-08-10T16:18:39.399Z,24.30
2022-08-10T16:21:15.792Z,24.30
2022-08-10T16:23:59.216Z,24.30
2022-08-10T16:26:40.009Z,24.40
2022-08-10T16:29:15.879Z,24.50
2022-08-10T16:31:54.000Z,24.50
2022-08-10T16:34:22.530Z,24.40
2022-08-10T16:37:06.130Z,24.50
2022-08-10T16:39:59.172Z,24.50
2022-08-10T16:42:29.388Z,24.20
2022-08-10T16:45:17.479Z,24.00
2022-08-10T16:47:53.498Z,23.90
2022-08-10T16:50:34.057Z,23.80
2022-08-10T16:53:03.198Z,23.80
2022-08-10T16:55:48.020Z,23.80
2022-08-10T16:58:25.389Z,23.70
2022-08-10T17:00:57.565Z,23.70
2022-08-10T17:04:06.173Z,23.60
2022-08-10T17:06:57.817Z,23.60
2022-08-10T17:09:30.526Z,23.50
2022-08-10T17:12:02.252Z,23.40
2022-08-10T17:14:30.172Z,23.40
2022-08-10T17:17:06.028Z,23.30
2022-08-10T17:19:43.535Z,23.40
2022-08-10T17:22:54.506Z,23.30
2022-08-10T17:30:57.353Z,23.30
2022-08-10T17:42:39.576Z,23.00
2022-08-10T17:49:27.046Z,22.80
2022-08-10T17:53:45.330Z,22.70
2022-08-10T18:05:56.233Z,22.50
2022-08-10T18:13:55.566Z,22.50
2022-08-10T18:16:30.027Z,22.30
2022-08-10T18:19:01.028Z,22.20
2022-08-10T18:21:32.275Z,22.10
2022-08-10T18:24:10.824Z,21.90
2022-08-10T18:26:43.527Z,22.00
2022-08-10T18:29:13.985Z,21.90
2022-08-10T18:31:48.182Z,21.80
2022-08-10T18:34:24.494Z,21.60
2022-08-10T18:36:52.977Z,21.50
2022-08-10T18:39:50.600Z,21.40
2022-08-10T18:42:36.816Z,21.20
2022-08-10T18:45:21.115Z,21.20
2022-08-10T18:48:10.897Z,21.20
2022-08-10T18:51:05.464Z,21.10
2022-08-10T18:53:59.550Z,21.10
2022-08-10T18:56:35.456Z,21.10
2022-08-10T18:59:40.321Z,20.90
2022-08-10T19:36:02.962Z,20.10
2022-08-10T19:55:06.106Z,19.60
2022-08-10T20:02:28.049Z,19.60
2022-08-10T20:07:00.062Z,19.40
2022-08-10T20:09:32.455Z,19.40
2022-08-10T20:17:03.584Z,19.10
2022-08-10T20:20:03.753Z,19.00
2022-08-10T20:22:45.053Z,18.90
2022-08-10T20:25:28.677Z,18.70
2022-08-10T20:28:18.973Z,18.70
2022-08-10T20:30:52.194Z,18.60
2022-08-10T20:33:46.410Z,18.60
2022-08-10T20:36:36.700Z,18.70
2022-08-10T20:39:16.982Z,18.60
2022-08-10T20:42:18.517Z,18.60
2022-08-10T20:45:01.826Z,18.50
2022-08-10T20:48:05.682Z,18.50
2022-08-10T20:50:48.786Z,18.30
2022-08-10T20:53:26.430Z,18.30
2022-08-10T20:56:12.240Z,18.30
2022-08-10T20:59:10.191Z,18.40
2022-08-10T21:02:05.928Z,18.40
2022-08-10T21:05:10.224Z,18.30
2022-08-10T21:08:04.781Z,18.20
2022-08-10T21:10:54.384Z,18.20
2022-08-10T21:13:53.432Z,18.00
2022-08-10T21:16:26.255Z,17.90
2022-08-10T21:19:15.822Z,17.90
2022-08-10T21:22:08.492Z,17.80
2022-08-10T21:24:52.266Z,17.80
2022-08-10T21:27:28.342Z,17.60
2022-08-10T21:30:17.171Z,17.60
2022-08-10T21:33:07.314Z,17.70
2022-08-10T21:35:48.560Z,17.70
2022-08-10T21:38:28.366Z,17.60
2022-08-10T21:41:57.255Z,17.50
2022-08-10T21:45:21.873Z,17.30
2022-08-10T21:48:57.774Z,17.40
2022-08-10T21:52:16.074Z,17.10
2022-08-10T21:55:14.406Z,16.90
2022-08-10T21:58:29.960Z,16.80
2022-08-10T22:01:24.556Z,16.70
2022-08-10T22:04:25.361Z,16.60
2022-08-10T22:07:11.773Z,16.80
2022-08-10T22:10:02.149Z,16.60
2022-08-10T22:12:58.652Z,16.50
2022-08-10T22:16:09.924Z,16.40
2022-08-10T22:19:02.165Z,16.40
2022-08-10T22:22:27.461Z,16.40
2022-08-10T22:25:20.994Z,16.70
2022-08-10T22:28:12.339Z,16.60
2022-08-10T22:34:38.708Z,16.50
2022-08-10T22:37:26.905Z,16.30
2022-08-10T22:40:13.864Z,16.30
2022-08-10T22:43:10.401Z,16.30
2022-08-10T22:46:17.674Z,16.30
2022-08-10T22:49:01.981Z,16.30
2022-08-10T22:51:36.620Z,16.20
2022-08-10T22:54:52.882Z,16.10
2022-08-10T22:57:38.366Z,16.30
2022-08-10T23:00:16.053Z,16.20
2022-08-10T23:03:01.871Z,16.30
2022-08-10T23:05:38.009Z,16.30
2022-08-10T23:08:30.369Z,16.30
2022-08-10T23:11:04.248Z,16.30
2022-08-10T23:13:42.042Z,16.20
2022-08-10T23:16:37.638Z,16.40
2022-08-10T23:19:12.986Z,16.30
2022-08-10T23:22:04.760Z,16.20
2022-08-10T23:24:37.473Z,16.30
2022-08-10T23:27:10.345Z,16.40
2022-08-10T23:30:09.322Z,16.30
2022-08-10T23:32:35.356Z,16.40
2022-08-10T23:36:29.455Z,16.40
2022-08-10T23:38:01.812Z,16.50
2022-08-10T23:40:28.997Z,16.40
2022-08-10T23:42:57.599Z,16.30
2022-08-10T23:45:28.640Z,16.10
2022-08-10T23:48:00.171Z,16.10
2022-08-10T23:50:28.708Z,16.20
2022-08-10T23:52:59.995Z,16.30
2022-08-10T23:55:49.162Z,16.20
2022-08-10T23:58:31.899Z,16.10
